Red Bird, Missouri
Current Conditions -  °F | °C
As of 4:53 AM on Friday 28 Nov 2014 (Local Time) from KVIH Reporting Station
Clear Clear  
Wind Chill: 19°   Ceiling: Unl
Heat Index: 28°   Visibility: 10mi
Dew Point: 22°   Wind: 10mph
Humidity: 78%   Direction: 150°SSE
Pressure: 30.21"   Gusts: NA
Location:  38.3239°N, 91.6268°W
Report Text: KVIH 281053Z AUTO 15009KT 10SM CLR M02/M06 A3021 RMK AO2 SLP240 T10221056 $
Loading
Personal Weather Stations






























Interactive Weather Map New forecast layout! Learn more

10-Day Weather Forecast

Advertisements
Track Severe Weather on mobile